createdAt,value
2019-04-01T00:04:41.976Z,13.05
2019-04-01T00:07:10.893Z,6.78
2019-04-01T00:09:40.847Z,6.53
2019-04-01T00:12:10.007Z,9.03
2019-04-01T00:14:38.684Z,8.28
2019-04-01T00:17:07.386Z,11.15
2019-04-01T00:19:36.397Z,14.53
2019-04-01T00:22:05.306Z,11.10
2019-04-01T00:24:33.991Z,16.15
2019-04-01T00:27:02.905Z,12.88
2019-04-01T00:29:31.585Z,13.20
2019-04-01T00:32:00.583Z,11.50
2019-04-01T00:34:29.294Z,8.80
2019-04-01T00:36:57.963Z,8.75
2019-04-01T00:39:26.633Z,10.80
2019-04-01T00:42:04.934Z,10.93
2019-04-01T00:44:54.580Z,11.03
2019-04-01T00:47:23.246Z,10.35
2019-04-01T00:49:52.011Z,17.82
2019-04-01T00:52:22.880Z,9.03
2019-04-01T00:54:51.643Z,27.15
2019-04-01T00:57:20.556Z,13.88
2019-04-01T00:59:49.806Z,19.48
2019-04-01T01:02:18.475Z,9.58
2019-04-01T01:04:47.181Z,15.78
2019-04-01T01:07:15.849Z,16.00
2019-04-01T01:09:46.057Z,9.13
2019-04-01T01:12:14.754Z,9.93
2019-04-01T01:14:43.540Z,12.58
2019-04-01T01:17:12.229Z,15.00
2019-04-01T01:19:40.932Z,9.28
2019-04-01T01:22:09.606Z,11.78
2019-04-01T01:24:40.061Z,9.88
2019-04-01T01:27:08.751Z,10.75
2019-04-01T01:29:37.423Z,18.92
2019-04-01T01:32:06.433Z,12.70
2019-04-01T01:34:35.385Z,8.75
2019-04-01T01:37:04.129Z,17.82
2019-04-01T01:39:32.817Z,12.18
2019-04-01T01:42:02.047Z,14.30
2019-04-01T01:44:30.733Z,14.90
2019-04-01T01:46:59.700Z,12.73
2019-04-01T01:49:28.377Z,10.80
2019-04-01T01:51:57.325Z,14.63
2019-04-01T01:54:26.261Z,15.05
2019-04-01T01:56:55.295Z,15.18
2019-04-01T01:59:23.970Z,6.30
2019-04-01T02:01:52.661Z,10.05
2019-04-01T02:04:21.330Z,9.65
2019-04-01T02:06:50.021Z,14.03
2019-04-01T02:09:18.949Z,13.03
2019-04-01T02:11:47.641Z,10.30
2019-04-01T02:14:16.551Z,7.97
2019-04-01T02:16:45.476Z,15.58
2019-04-01T02:19:14.413Z,8.23
2019-04-01T02:21:43.787Z,8.75
2019-04-01T02:24:12.726Z,9.35
2019-04-01T02:26:41.623Z,8.28
2019-04-01T02:29:10.291Z,8.08
2019-04-01T02:31:39.328Z,5.60
2019-04-01T02:34:08.264Z,7.37
2019-04-01T02:36:37.043Z,8.55
2019-04-01T02:39:11.399Z,8.23
2019-04-01T02:41:40.073Z,7.92
2019-04-01T02:44:10.384Z,9.80
2019-04-01T02:46:39.362Z,10.05
2019-04-01T02:49:08.121Z,10.82
2019-04-01T02:51:36.797Z,10.53
2019-04-01T02:54:05.779Z,9.58
2019-04-01T02:56:35.101Z,6.60
2019-04-01T02:59:03.802Z,9.93
2019-04-01T03:01:32.554Z,6.67
2019-04-01T03:04:01.280Z,10.00
2019-04-01T03:06:30.292Z,9.68
2019-04-01T03:08:59.197Z,8.10
2019-04-01T03:11:28.347Z,10.32
2019-04-01T03:13:57.032Z,11.38
2019-04-01T03:16:25.762Z,5.75
2019-04-01T03:18:54.921Z,8.13
2019-04-01T03:21:23.596Z,11.33
2019-04-01T03:23:52.283Z,10.25
2019-04-01T03:26:21.018Z,6.10
2019-04-01T03:28:49.955Z,6.85
2019-04-01T03:31:18.887Z,9.30
2019-04-01T03:33:47.571Z,6.08
2019-04-01T03:36:16.755Z,8.33
2019-04-01T03:38:45.668Z,9.28
2019-04-01T03:41:14.597Z,8.55
2019-04-01T03:43:43.517Z,6.85
2019-04-01T03:46:12.440Z,10.30
2019-04-01T03:48:41.441Z,8.70
2019-04-01T03:51:10.195Z,7.25
2019-04-01T03:53:38.918Z,8.28
2019-04-01T03:56:07.662Z,5.70
2019-04-01T03:58:36.334Z,7.17
2019-04-01T04:01:05.258Z,6.97
2019-04-01T04:03:33.975Z,8.98
2019-04-01T04:06:02.657Z,11.18
2019-04-01T04:08:31.336Z,7.85
2019-04-01T04:11:00.264Z,10.05
2019-04-01T04:13:28.938Z,8.68
2019-04-01T04:15:57.779Z,9.33
2019-04-01T04:18:29.077Z,8.90
2019-04-01T04:20:58.030Z,7.60
2019-04-01T04:23:26.662Z,11.25
2019-04-01T04:25:55.644Z,7.47
2019-04-01T04:28:24.565Z,9.13
2019-04-01T04:30:53.527Z,10.53
2019-04-01T04:33:22.214Z,11.75
2019-04-01T04:35:50.883Z,6.92
2019-04-01T04:38:20.819Z,8.00
2019-04-01T04:40:52.783Z,5.00
2019-04-01T04:46:03.625Z,7.75
2019-04-01T04:48:33.347Z,7.12
2019-04-01T04:51:02.282Z,5.05
2019-04-01T04:53:31.207Z,11.12
2019-04-01T04:55:59.893Z,6.65
2019-04-01T04:58:28.833Z,6.70
2019-04-01T05:00:57.748Z,7.00
2019-04-01T05:03:26.426Z,7.08
2019-04-01T05:05:55.189Z,7.85
2019-04-01T05:08:24.164Z,6.83
2019-04-01T05:10:52.823Z,10.18
2019-04-01T05:13:21.833Z,8.18
2019-04-01T05:15:50.559Z,6.62
2019-04-01T05:18:19.739Z,10.32
2019-04-01T05:20:48.715Z,9.85
2019-04-01T05:23:18.349Z,9.68
2019-04-01T05:25:48.470Z,9.13
2019-04-01T05:28:18.110Z,4.25
2019-04-01T05:30:48.813Z,7.47
2019-04-01T05:33:20.975Z,6.53
2019-04-01T05:35:49.893Z,11.65
2019-04-01T05:38:18.656Z,5.58
2019-04-01T05:40:47.329Z,8.80
2019-04-01T05:43:16.074Z,7.40
2019-04-01T05:45:47.703Z,5.92
2019-04-01T05:48:17.498Z,8.30
2019-04-01T05:50:46.467Z,9.70
2019-04-01T05:53:15.244Z,9.23
2019-04-01T05:55:43.956Z,8.38
2019-04-01T05:58:12.677Z,4.22
2019-04-01T06:00:48.453Z,8.35
2019-04-01T06:03:17.378Z,6.85
2019-04-01T06:05:46.544Z,8.35
2019-04-01T06:08:15.339Z,5.00
2019-04-01T06:10:44.155Z,9.18
2019-04-01T06:13:13.483Z,12.75
2019-04-01T06:15:42.301Z,8.90
2019-04-01T06:18:10.990Z,8.10
2019-04-01T06:20:39.842Z,5.80
2019-04-01T06:23:08.857Z,10.35
2019-04-01T06:25:37.537Z,7.35
2019-04-01T06:28:06.353Z,7.08
2019-04-01T06:30:35.079Z,6.97
2019-04-01T06:33:04.092Z,7.95
2019-04-01T06:35:33.322Z,4.78
2019-04-01T06:38:02.038Z,10.45
2019-04-01T06:40:30.982Z,6.20
2019-04-01T06:42:59.667Z,8.90
2019-04-01T06:45:28.339Z,10.50
2019-04-01T06:47:57.124Z,8.43
2019-04-01T06:50:25.825Z,9.73
2019-04-01T06:52:55.445Z,4.85
2019-04-01T06:55:24.260Z,10.28
2019-04-01T06:57:53.107Z,7.25
2019-04-01T07:00:23.563Z,8.23
2019-04-01T07:02:52.836Z,10.03
2019-04-01T07:05:21.578Z,10.70
2019-04-01T07:07:50.322Z,8.88
2019-04-01T07:10:19.067Z,6.35
2019-04-01T07:12:48.065Z,4.20
2019-04-01T07:15:16.904Z,10.90
2019-04-01T07:17:45.679Z,6.85
2019-04-01T07:20:14.987Z,5.30
2019-04-01T07:22:43.794Z,9.03
2019-04-01T07:25:12.542Z,9.38
2019-04-01T07:27:41.328Z,14.45
2019-04-01T07:30:11.160Z,5.80
2019-04-01T07:32:40.152Z,9.78
2019-04-01T07:35:09.336Z,10.05
2019-04-01T07:37:38.072Z,10.15
2019-04-01T07:40:08.378Z,9.08
2019-04-01T07:42:37.455Z,8.03
2019-04-01T07:45:06.538Z,6.05
2019-04-01T07:47:35.383Z,9.60
2019-04-01T07:50:04.783Z,10.90
2019-04-01T07:52:33.455Z,7.95
2019-04-01T07:55:02.209Z,8.38
2019-04-01T07:57:32.786Z,7.22
2019-04-01T08:00:01.956Z,6.92
2019-04-01T08:02:30.636Z,13.03
2019-04-01T08:04:59.825Z,7.33
2019-04-01T08:07:28.828Z,10.95
2019-04-01T08:09:57.602Z,8.60
2019-04-01T08:12:27.936Z,5.75
2019-04-01T08:14:57.168Z,6.67
2019-04-01T08:17:25.937Z,7.87
2019-04-01T08:19:55.294Z,5.75
2019-04-01T08:22:24.556Z,12.00
2019-04-01T08:24:54.027Z,8.28
2019-04-01T08:27:22.711Z,8.90
2019-04-01T08:29:51.726Z,8.73
2019-04-01T08:32:20.591Z,7.97
2019-04-01T08:34:51.555Z,8.23
2019-04-01T08:37:20.362Z,8.60
2019-04-01T08:39:49.306Z,9.33
2019-04-01T08:42:18.048Z,8.33
2019-04-01T08:44:46.888Z,9.63
2019-04-01T08:47:15.710Z,8.38
2019-04-01T08:49:44.541Z,7.42
2019-04-01T08:52:13.316Z,8.43
2019-04-01T08:54:42.485Z,8.98
2019-04-01T08:57:11.231Z,6.70
2019-04-01T08:59:40.006Z,7.35
2019-04-01T09:02:17.636Z,7.87
2019-04-01T09:04:39.551Z,5.92
2019-04-01T09:07:08.253Z,8.88
2019-04-01T09:09:38.718Z,10.60
2019-04-01T09:12:07.568Z,6.83
2019-04-01T09:14:37.286Z,9.50
2019-04-01T09:17:05.992Z,8.10
2019-04-01T09:19:34.833Z,9.58
2019-04-01T09:22:03.515Z,5.72
2019-04-01T09:24:32.464Z,9.15
2019-04-01T09:27:01.641Z,6.00
2019-04-01T09:29:30.639Z,7.67
2019-04-01T09:31:59.330Z,7.90
2019-04-01T09:34:29.633Z,10.38
2019-04-01T09:36:58.674Z,8.73
2019-04-01T09:39:27.577Z,7.92
2019-04-01T09:41:56.363Z,7.62
2019-04-01T09:44:36.747Z,8.38
2019-04-01T09:47:00.007Z,7.62
2019-04-01T09:49:31.368Z,11.20
2019-04-01T09:52:03.652Z,8.73
2019-04-01T09:54:30.784Z,7.75
2019-04-01T09:56:59.806Z,6.60
2019-04-01T09:59:28.491Z,9.88
2019-04-01T10:01:57.438Z,7.45
2019-04-01T10:04:28.301Z,4.78
2019-04-01T10:06:57.219Z,6.87
2019-04-01T10:09:25.956Z,8.63
2019-04-01T10:11:55.291Z,5.60
2019-04-01T10:14:23.972Z,4.17
2019-04-01T10:16:52.651Z,6.17
2019-04-01T10:19:21.339Z,5.25
2019-04-01T10:21:50.031Z,8.45
2019-04-01T10:24:18.977Z,3.80
2019-04-01T10:26:47.727Z,6.42
2019-04-01T10:29:17.190Z,6.25
2019-04-01T10:31:45.871Z,9.85
2019-04-01T10:34:14.541Z,8.50
2019-04-01T10:36:43.594Z,6.45
2019-04-01T10:39:12.513Z,6.80
2019-04-01T10:41:41.423Z,9.30
2019-04-01T10:44:10.072Z,7.60
2019-04-01T10:46:40.769Z,8.03
2019-04-01T10:49:09.504Z,9.58
2019-04-01T10:51:38.303Z,6.05
2019-04-01T10:54:07.614Z,6.47
2019-04-01T10:56:36.327Z,6.97
2019-04-01T10:59:05.100Z,5.92
2019-04-01T11:01:34.114Z,5.22
2019-04-01T11:04:03.093Z,8.70
2019-04-01T11:06:32.312Z,6.95
2019-04-01T11:09:01.062Z,9.78
2019-04-01T11:11:30.146Z,6.33
2019-04-01T11:13:58.826Z,5.85
2019-04-01T11:16:27.515Z,6.35
2019-04-01T11:18:58.127Z,7.15
2019-04-01T11:21:26.739Z,11.28
2019-04-01T11:23:55.429Z,10.45
2019-04-01T11:26:24.447Z,8.38
2019-04-01T11:28:53.205Z,6.80
2019-04-01T11:31:22.191Z,6.55
2019-04-01T11:33:50.879Z,6.87
2019-04-01T11:36:19.516Z,7.70
2019-04-01T11:38:48.554Z,7.40
2019-04-01T11:41:17.771Z,7.50
2019-04-01T11:43:46.792Z,7.12
2019-04-01T11:46:15.477Z,7.45
2019-04-01T11:48:44.210Z,7.67
2019-04-01T11:51:13.178Z,5.92
2019-04-01T11:53:41.934Z,8.60
2019-04-01T11:56:10.956Z,9.20
2019-04-01T11:58:40.267Z,9.23
2019-04-01T12:01:09.211Z,6.10
2019-04-01T12:03:37.898Z,10.03
2019-04-01T12:06:06.579Z,7.22
2019-04-01T12:08:35.663Z,7.58
2019-04-01T12:11:04.475Z,8.18
2019-04-01T12:13:33.439Z,9.48
2019-04-01T12:16:02.416Z,8.50
2019-04-01T12:18:31.251Z,7.42
2019-04-01T12:21:00.153Z,7.70
2019-04-01T12:23:29.169Z,7.15
2019-04-01T12:25:58.113Z,7.17
2019-04-01T12:28:26.812Z,8.05
2019-04-01T12:30:55.815Z,6.17
2019-04-01T12:33:26.335Z,5.70
2019-04-01T12:35:55.643Z,6.70
2019-04-01T12:38:24.318Z,5.62
2019-04-01T12:40:53.308Z,5.55
2019-04-01T12:43:23.709Z,5.75
2019-04-01T12:45:52.787Z,6.78
2019-04-01T12:48:21.558Z,7.17
2019-04-01T12:50:53.043Z,9.43
2019-04-01T12:53:21.804Z,6.70
2019-04-01T12:55:50.532Z,6.60
2019-04-01T12:58:20.655Z,7.20
2019-04-01T13:00:50.788Z,8.88
2019-04-01T13:03:20.243Z,8.23
2019-04-01T13:05:48.928Z,6.05
2019-04-01T13:08:17.917Z,8.03
2019-04-01T13:10:46.657Z,9.18
2019-04-01T13:13:15.972Z,9.35
2019-04-01T13:15:44.908Z,7.83
2019-04-01T13:18:13.846Z,8.65
2019-04-01T13:20:42.785Z,8.90
2019-04-01T13:23:11.471Z,9.53
2019-04-01T13:25:40.634Z,6.58
2019-04-01T13:28:09.792Z,7.60
2019-04-01T13:30:38.476Z,9.75
2019-04-01T13:33:07.182Z,9.65
2019-04-01T13:35:35.807Z,9.85
2019-04-01T13:38:04.490Z,8.55
2019-04-01T13:40:33.158Z,6.55
2019-04-01T13:43:04.633Z,6.50
2019-04-01T13:45:32.248Z,7.25
2019-04-01T13:48:01.430Z,8.55
2019-04-01T13:50:30.150Z,14.30
2019-04-01T13:52:58.812Z,8.80
2019-04-01T13:55:27.986Z,8.70
2019-04-01T13:57:56.950Z,8.75
2019-04-01T14:00:27.539Z,9.43
2019-04-01T14:02:56.038Z,14.45
2019-04-01T14:05:25.300Z,7.28
2019-04-01T14:07:53.997Z,7.80
2019-04-01T14:10:22.673Z,12.58
2019-04-01T14:12:51.589Z,11.40
2019-04-01T14:15:20.353Z,7.97
2019-04-01T14:17:49.261Z,12.75
2019-04-01T14:20:17.950Z,6.55
2019-04-01T14:22:46.695Z,10.85
2019-04-01T14:25:15.430Z,6.87
2019-04-01T14:27:44.357Z,6.75
2019-04-01T14:30:13.292Z,13.88
2019-04-01T14:32:42.452Z,8.50
2019-04-01T14:35:11.288Z,8.40
2019-04-01T14:37:40.309Z,8.18
2019-04-01T14:40:09.415Z,7.12
2019-04-01T14:42:39.611Z,5.92
2019-04-01T14:45:09.155Z,7.80
2019-04-01T14:47:55.563Z,10.28
2019-04-01T14:50:08.525Z,9.28
2019-04-01T14:52:37.273Z,11.83
2019-04-01T14:55:06.676Z,9.93
2019-04-01T14:57:35.606Z,6.05
2019-04-01T15:00:10.695Z,4.42
2019-04-01T15:02:39.507Z,7.37
2019-04-01T15:05:08.359Z,9.33
2019-04-01T15:07:37.129Z,6.05
2019-04-01T15:10:06.252Z,8.68
2019-04-01T15:12:34.998Z,7.70
2019-04-01T15:15:04.153Z,9.75
2019-04-01T15:17:36.672Z,10.55
2019-04-01T15:20:04.561Z,10.53
2019-04-01T15:22:33.556Z,5.08
2019-04-01T15:25:02.559Z,9.25
2019-04-01T15:27:31.546Z,8.18
2019-04-01T15:30:00.250Z,5.83
2019-04-01T15:32:28.937Z,5.42
2019-04-01T15:34:57.717Z,6.00
2019-04-01T15:37:32.040Z,8.00
2019-04-01T15:39:59.463Z,6.47
2019-04-01T15:42:28.153Z,5.85
2019-04-01T15:44:59.042Z,8.33
2019-04-01T15:47:27.829Z,9.00
2019-04-01T15:49:59.036Z,5.58
2019-04-01T15:52:28.877Z,7.15
2019-04-01T15:54:58.107Z,7.50
2019-04-01T15:57:27.547Z,9.95
2019-04-01T15:59:56.231Z,10.93
2019-04-01T16:02:27.829Z,9.33
2019-04-01T16:04:58.807Z,6.55
2019-04-01T16:07:28.957Z,4.77
2019-04-01T16:09:58.473Z,11.38
2019-04-01T16:12:27.434Z,5.97
2019-04-01T16:14:56.175Z,5.20
2019-04-01T16:17:24.897Z,6.28
2019-04-01T16:19:56.016Z,7.25
2019-04-01T16:22:24.754Z,7.95
2019-04-01T16:24:54.451Z,6.53
2019-04-01T16:27:23.112Z,9.23
2019-04-01T16:29:52.073Z,7.25
2019-04-01T16:32:20.943Z,8.88
2019-04-01T16:34:49.879Z,8.05
2019-04-01T16:37:18.816Z,5.15
2019-04-01T16:39:48.812Z,7.62
2019-04-01T16:42:17.468Z,5.47
2019-04-01T16:44:46.595Z,13.93
2019-04-01T16:47:15.383Z,7.85
2019-04-01T16:49:44.075Z,6.72
2019-04-01T16:52:15.447Z,5.90
2019-04-01T16:54:47.229Z,6.45
2019-04-01T16:57:16.184Z,5.45
2019-04-01T16:59:44.895Z,5.72
2019-04-01T17:02:18.194Z,5.17
2019-04-01T17:04:46.118Z,4.45
2019-04-01T17:07:14.893Z,6.97
2019-04-01T17:09:43.842Z,5.75
2019-04-01T17:12:13.107Z,4.50
2019-04-01T17:14:42.274Z,4.25
2019-04-01T17:17:11.356Z,4.53
2019-04-01T17:19:40.268Z,5.03
2019-04-01T17:22:11.383Z,3.55
2019-04-01T17:24:39.647Z,4.45
2019-04-01T17:27:12.040Z,3.95
2019-04-01T17:29:42.420Z,4.55
2019-04-01T17:32:11.493Z,5.40
2019-04-01T17:34:40.505Z,4.15
2019-04-01T17:37:09.595Z,4.37
2019-04-01T17:39:38.324Z,3.80
2019-04-01T17:42:07.464Z,5.62
2019-04-01T17:44:36.232Z,9.15
2019-04-01T17:47:06.192Z,4.67
2019-04-01T17:49:35.222Z,5.03
2019-04-01T17:52:04.585Z,4.60
2019-04-01T17:54:33.534Z,5.92
2019-04-01T17:57:02.294Z,5.00
2019-04-01T17:59:31.323Z,7.10
2019-04-01T18:02:00.353Z,7.53
2019-04-01T18:04:30.941Z,7.00
2019-04-01T18:06:59.989Z,4.65
2019-04-01T18:09:28.813Z,5.83
2019-04-01T18:11:57.817Z,7.37
2019-04-01T18:14:26.578Z,7.33
2019-04-01T18:16:55.255Z,7.28
2019-04-01T18:19:23.918Z,3.98
2019-04-01T18:21:52.721Z,4.60
2019-04-01T18:24:22.261Z,6.70
2019-04-01T18:26:54.061Z,6.50
2019-04-01T18:29:22.755Z,6.15
2019-04-01T18:31:51.779Z,6.90
2019-04-01T18:34:22.983Z,4.78
2019-04-01T18:36:52.212Z,7.43
2019-04-01T18:39:21.230Z,7.80
2019-04-01T18:41:49.989Z,7.85
2019-04-01T18:44:18.967Z,5.97
2019-04-01T18:46:47.639Z,7.00
2019-04-01T18:49:17.296Z,8.60
2019-04-01T18:51:46.337Z,5.95
2019-04-01T18:54:14.984Z,7.58
2019-04-01T18:56:43.919Z,9.85
2019-04-01T18:59:12.619Z,5.70
2019-04-01T19:01:41.331Z,7.95
2019-04-01T19:04:10.079Z,7.70
2019-04-01T19:06:38.991Z,9.10
2019-04-01T19:09:09.814Z,9.80
2019-04-01T19:11:39.598Z,7.30
2019-04-01T19:14:08.466Z,6.78
2019-04-01T19:16:37.426Z,9.88
2019-04-01T19:19:06.125Z,7.60
2019-04-01T19:21:35.037Z,6.90
2019-04-01T19:24:06.610Z,10.32
2019-04-01T19:26:34.273Z,8.30
2019-04-01T19:29:03.064Z,7.47
2019-04-01T19:31:32.005Z,6.97
2019-04-01T19:34:00.689Z,5.92
2019-04-01T19:36:30.146Z,6.58
2019-04-01T19:38:59.432Z,8.33
2019-04-01T19:41:28.373Z,7.08
2019-04-01T19:43:57.062Z,8.20
2019-04-01T19:46:26.010Z,7.53
2019-04-01T19:48:54.960Z,6.95
2019-04-01T19:51:23.652Z,11.78
2019-04-01T19:53:53.239Z,6.42
2019-04-01T19:56:22.378Z,8.25
2019-04-01T19:58:51.119Z,7.55
2019-04-01T20:01:20.243Z,8.08
2019-04-01T20:03:48.959Z,6.72
2019-04-01T20:06:18.526Z,9.33
2019-04-01T20:08:49.690Z,8.35
2019-04-01T20:11:18.216Z,8.45
2019-04-01T20:13:46.921Z,7.58
2019-04-01T20:16:15.860Z,6.62
2019-04-01T20:18:44.561Z,6.87
2019-04-01T20:21:13.569Z,6.33
2019-04-01T20:23:42.335Z,6.87
2019-04-01T20:26:11.019Z,8.35
2019-04-01T20:28:39.999Z,10.48
2019-04-01T20:31:08.694Z,8.88
2019-04-01T20:33:37.422Z,10.32
2019-04-01T20:36:06.374Z,7.72
2019-04-01T20:38:35.096Z,9.45
2019-04-01T20:41:03.852Z,6.60
2019-04-01T20:43:32.575Z,8.48
2019-04-01T20:46:01.268Z,6.67
2019-04-01T20:48:29.954Z,8.88
2019-04-01T20:50:58.638Z,10.28
2019-04-01T20:53:27.568Z,9.33
2019-04-01T20:55:56.246Z,8.73
2019-04-01T20:58:24.940Z,8.68
2019-04-01T21:00:53.703Z,7.72
2019-04-01T21:03:22.407Z,8.13
2019-04-01T21:05:51.151Z,7.50
2019-04-01T21:08:19.820Z,9.63
2019-04-01T21:10:48.505Z,6.47
2019-04-01T21:13:17.201Z,6.75
2019-04-01T21:15:48.312Z,10.00
2019-04-01T21:18:17.222Z,9.83
2019-04-01T21:20:45.942Z,5.95
2019-04-01T21:23:14.973Z,6.12
2019-04-01T21:25:43.713Z,8.98
2019-04-01T21:28:12.484Z,7.78
2019-04-01T21:30:41.181Z,8.03
2019-04-01T21:33:10.012Z,7.83
2019-04-01T21:35:38.967Z,6.25
2019-04-01T21:38:07.908Z,6.90
2019-04-01T21:40:36.606Z,6.53
2019-04-01T21:43:05.843Z,8.38
2019-04-01T21:45:34.881Z,9.98
2019-04-01T21:48:06.417Z,9.80
2019-04-01T21:50:35.136Z,7.65
2019-04-01T21:53:06.754Z,7.00
2019-04-01T21:55:35.457Z,8.77
2019-04-01T21:58:04.485Z,5.58
2019-04-01T22:00:53.181Z,8.28
2019-04-01T22:03:21.849Z,9.28
2019-04-01T22:05:50.614Z,9.03
2019-04-01T22:08:19.303Z,6.30
2019-04-01T22:10:48.179Z,11.20
2019-04-01T22:13:17.098Z,6.95
2019-04-01T22:15:46.195Z,7.08
2019-04-01T22:18:14.939Z,9.83
2019-04-01T22:20:44.436Z,8.75
2019-04-01T22:23:13.102Z,7.40
2019-04-01T22:25:42.335Z,7.85
2019-04-01T22:28:11.025Z,6.72
2019-04-01T22:30:39.955Z,4.17
2019-04-01T22:33:08.722Z,9.48
2019-04-01T22:35:38.957Z,5.62
2019-04-01T22:38:07.915Z,8.08
2019-04-01T22:40:36.771Z,8.15
2019-04-01T22:43:05.554Z,6.97
2019-04-01T22:45:34.331Z,8.60
2019-04-01T22:48:02.998Z,8.50
2019-04-01T22:50:31.690Z,8.40
2019-04-01T22:53:00.363Z,8.85
2019-04-01T22:55:29.066Z,6.55
2019-04-01T22:57:57.783Z,11.60
2019-04-01T23:00:26.623Z,11.83
2019-04-01T23:02:55.531Z,15.43
2019-04-01T23:05:24.232Z,19.57
2019-04-01T23:07:53.140Z,14.00
2019-04-01T23:10:21.814Z,18.32
2019-04-01T23:12:51.135Z,25.17
2019-04-01T23:15:20.190Z,26.95
2019-04-01T23:17:49.108Z,34.55
2019-04-01T23:20:18.024Z,30.70
2019-04-01T23:22:46.953Z,28.62
2019-04-01T23:25:15.884Z,28.77
2019-04-01T23:27:44.665Z,33.60
2019-04-01T23:30:13.684Z,21.40
2019-04-01T23:32:42.645Z,13.22
2019-04-01T23:35:14.400Z,9.88
2019-04-01T23:38:00.279Z,8.20
2019-04-01T23:40:29.243Z,10.72
2019-04-01T23:42:58.175Z,11.03
2019-04-01T23:45:27.100Z,9.78
2019-04-01T23:47:55.774Z,9.48
2019-04-01T23:50:25.190Z,6.83
2019-04-01T23:52:53.858Z,7.20
2019-04-01T23:55:22.542Z,9.03
2019-04-01T23:57:51.239Z,14.93
